sensor_id;sensor_type;location;lat;lon;timestamp;P1;durP1;ratioP1;P2;durP2;ratioP2
45784;SDS011;31489;51.404;5.474;2023-05-10T00:01:07;14.45;;;12.95;;
45784;SDS011;31489;51.404;5.474;2023-05-10T00:03:33;14.95;;;13.45;;
45784;SDS011;31489;51.404;5.474;2023-05-10T00:05:58;15.15;;;13.60;;
45784;SDS011;31489;51.404;5.474;2023-05-10T00:08:24;15.60;;;14.05;;
45784;SDS011;31489;51.404;5.474;2023-05-10T00:10:49;17.33;;;14.15;;
45784;SDS011;31489;51.404;5.474;2023-05-10T00:13:15;15.60;;;14.00;;
45784;SDS011;31489;51.404;5.474;2023-05-10T00:15:41;19.20;;;15.35;;
45784;SDS011;31489;51.404;5.474;2023-05-10T00:18:06;16.20;;;14.52;;
45784;SDS011;31489;51.404;5.474;2023-05-10T00:20:32;17.00;;;15.25;;
45784;SDS011;31489;51.404;5.474;2023-05-10T00:22:58;17.38;;;15.25;;
45784;SDS011;31489;51.404;5.474;2023-05-10T00:25:24;17.30;;;15.52;;
45784;SDS011;31489;51.404;5.474;2023-05-10T00:27:49;17.77;;;15.38;;
45784;SDS011;31489;51.404;5.474;2023-05-10T00:30:15;16.90;;;15.10;;
45784;SDS011;31489;51.404;5.474;2023-05-10T00:32:41;19.08;;;17.08;;
45784;SDS011;31489;51.404;5.474;2023-05-10T00:35:06;19.35;;;17.30;;
45784;SDS011;31489;51.404;5.474;2023-05-10T00:37:32;18.63;;;16.55;;
45784;SDS011;31489;51.404;5.474;2023-05-10T00:39:58;20.63;;;18.23;;
45784;SDS011;31489;51.404;5.474;2023-05-10T00:42:24;21.73;;;18.83;;
45784;SDS011;31489;51.404;5.474;2023-05-10T00:44:50;20.40;;;17.85;;
45784;SDS011;31489;51.404;5.474;2023-05-10T00:47:15;21.80;;;19.00;;
45784;SDS011;31489;51.404;5.474;2023-05-10T00:49:41;22.83;;;18.58;;
45784;SDS011;31489;51.404;5.474;2023-05-10T00:52:08;22.42;;;18.55;;
45784;SDS011;31489;51.404;5.474;2023-05-10T00:54:34;22.85;;;19.33;;
45784;SDS011;31489;51.404;5.474;2023-05-10T00:56:59;21.02;;;17.98;;
45784;SDS011;31489;51.404;5.474;2023-05-10T00:59:25;20.70;;;18.05;;
45784;SDS011;31489;51.404;5.474;2023-05-10T01:01:51;22.08;;;19.02;;
45784;SDS011;31489;51.404;5.474;2023-05-10T01:04:17;23.02;;;19.75;;
45784;SDS011;31489;51.404;5.474;2023-05-10T01:06:45;27.60;;;20.63;;
45784;SDS011;31489;51.404;5.474;2023-05-10T01:09:10;25.27;;;20.10;;
45784;SDS011;31489;51.404;5.474;2023-05-10T01:11:37;27.25;;;21.90;;
45784;SDS011;31489;51.404;5.474;2023-05-10T01:14:04;22.95;;;19.38;;
45784;SDS011;31489;51.404;5.474;2023-05-10T01:16:32;26.67;;;21.02;;
45784;SDS011;31489;51.404;5.474;2023-05-10T01:19:01;25.35;;;20.38;;
45784;SDS011;31489;51.404;5.474;2023-05-10T01:24:12;25.80;;;20.30;;
45784;SDS011;31489;51.404;5.474;2023-05-10T01:40:19;28.15;;;21.45;;
45784;SDS011;31489;51.404;5.474;2023-05-10T01:43:05;26.25;;;20.70;;
45784;SDS011;31489;51.404;5.474;2023-05-10T01:45:47;28.30;;;21.60;;
45784;SDS011;31489;51.404;5.474;2023-05-10T01:48:24;25.98;;;20.85;;
45784;SDS011;31489;51.404;5.474;2023-05-10T01:50:52;27.85;;;22.88;;
45784;SDS011;31489;51.404;5.474;2023-05-10T01:53:20;27.45;;;21.30;;
45784;SDS011;31489;51.404;5.474;2023-05-10T01:55:48;23.85;;;20.35;;
45784;SDS011;31489;51.404;5.474;2023-05-10T01:58:19;27.27;;;22.25;;
45784;SDS011;31489;51.404;5.474;2023-05-10T02:00:48;26.05;;;21.67;;
45784;SDS011;31489;51.404;5.474;2023-05-10T02:03:15;28.65;;;23.15;;
45784;SDS011;31489;51.404;5.474;2023-05-10T02:05:43;27.10;;;21.98;;
45784;SDS011;31489;51.404;5.474;2023-05-10T02:08:10;26.30;;;21.75;;
45784;SDS011;31489;51.404;5.474;2023-05-10T02:10:38;30.27;;;22.45;;
45784;SDS011;31489;51.404;5.474;2023-05-10T02:13:05;31.40;;;22.67;;
45784;SDS011;31489;51.404;5.474;2023-05-10T02:15:32;30.17;;;22.85;;
45784;SDS011;31489;51.404;5.474;2023-05-10T02:17:59;27.02;;;22.80;;
45784;SDS011;31489;51.404;5.474;2023-05-10T02:20:27;28.42;;;23.40;;
45784;SDS011;31489;51.404;5.474;2023-05-10T02:22:54;28.23;;;23.13;;
45784;SDS011;31489;51.404;5.474;2023-05-10T02:25:23;26.45;;;23.38;;
45784;SDS011;31489;51.404;5.474;2023-05-10T02:27:50;30.70;;;24.77;;
45784;SDS011;31489;51.404;5.474;2023-05-10T02:30:18;32.50;;;25.00;;
45784;SDS011;31489;51.404;5.474;2023-05-10T02:32:45;34.47;;;26.60;;
45784;SDS011;31489;51.404;5.474;2023-05-10T02:35:13;35.60;;;26.75;;
45784;SDS011;31489;51.404;5.474;2023-05-10T02:37:40;37.78;;;28.55;;
45784;SDS011;31489;51.404;5.474;2023-05-10T02:40:06;38.50;;;27.95;;
45784;SDS011;31489;51.404;5.474;2023-05-10T02:42:35;37.42;;;27.88;;
45784;SDS011;31489;51.404;5.474;2023-05-10T02:45:02;37.22;;;28.52;;
45784;SDS011;31489;51.404;5.474;2023-05-10T02:47:33;32.65;;;26.65;;
45784;SDS011;31489;51.404;5.474;2023-05-10T02:49:59;38.42;;;29.33;;
45784;SDS011;31489;51.404;5.474;2023-05-10T02:52:25;38.38;;;28.50;;
45784;SDS011;31489;51.404;5.474;2023-05-10T02:54:58;39.22;;;29.30;;
45784;SDS011;31489;51.404;5.474;2023-05-10T02:57:31;36.58;;;29.00;;
45784;SDS011;31489;51.404;5.474;2023-05-10T02:59:58;41.90;;;29.80;;
45784;SDS011;31489;51.404;5.474;2023-05-10T03:02:25;36.30;;;28.20;;
45784;SDS011;31489;51.404;5.474;2023-05-10T03:04:51;36.22;;;27.50;;
45784;SDS011;31489;51.404;5.474;2023-05-10T03:07:16;33.75;;;27.77;;
45784;SDS011;31489;51.404;5.474;2023-05-10T03:09:44;35.90;;;27.27;;
45784;SDS011;31489;51.404;5.474;2023-05-10T03:18:12;34.70;;;24.52;;
45784;SDS011;31489;51.404;5.474;2023-05-10T03:20:50;34.75;;;25.45;;
45784;SDS011;31489;51.404;5.474;2023-05-10T03:25:57;34.97;;;23.95;;
45784;SDS011;31489;51.404;5.474;2023-05-10T03:28:25;31.33;;;23.55;;
45784;SDS011;31489;51.404;5.474;2023-05-10T03:30:52;32.83;;;22.50;;
45784;SDS011;31489;51.404;5.474;2023-05-10T03:33:19;31.35;;;24.50;;
45784;SDS011;31489;51.404;5.474;2023-05-10T03:35:45;33.30;;;22.95;;
45784;SDS011;31489;51.404;5.474;2023-05-10T03:38:13;32.95;;;24.27;;
45784;SDS011;31489;51.404;5.474;2023-05-10T03:40:39;31.30;;;21.83;;
45784;SDS011;31489;51.404;5.474;2023-05-10T03:43:05;31.40;;;21.75;;
45784;SDS011;31489;51.404;5.474;2023-05-10T03:45:31;32.42;;;23.00;;
45784;SDS011;31489;51.404;5.474;2023-05-10T03:47:57;38.00;;;24.17;;
45784;SDS011;31489;51.404;5.474;2023-05-10T03:50:23;33.92;;;24.13;;
45784;SDS011;31489;51.404;5.474;2023-05-10T03:52:48;35.20;;;24.23;;
45784;SDS011;31489;51.404;5.474;2023-05-10T03:55:14;36.08;;;24.40;;
45784;SDS011;31489;51.404;5.474;2023-05-10T03:57:41;32.63;;;23.85;;
45784;SDS011;31489;51.404;5.474;2023-05-10T04:00:06;35.90;;;25.58;;
45784;SDS011;31489;51.404;5.474;2023-05-10T04:02:33;41.53;;;25.42;;
45784;SDS011;31489;51.404;5.474;2023-05-10T04:04:58;41.58;;;26.38;;
45784;SDS011;31489;51.404;5.474;2023-05-10T04:07:24;40.63;;;27.40;;
45784;SDS011;31489;51.404;5.474;2023-05-10T04:09:49;40.80;;;25.92;;
45784;SDS011;31489;51.404;5.474;2023-05-10T04:12:15;43.70;;;26.90;;
45784;SDS011;31489;51.404;5.474;2023-05-10T04:14:41;52.50;;;31.55;;
45784;SDS011;31489;51.404;5.474;2023-05-10T04:17:06;54.45;;;32.13;;
45784;SDS011;31489;51.404;5.474;2023-05-10T04:19:32;54.58;;;31.90;;
45784;SDS011;31489;51.404;5.474;2023-05-10T04:21:58;57.40;;;34.00;;
45784;SDS011;31489;51.404;5.474;2023-05-10T04:24:24;55.60;;;33.05;;
45784;SDS011;31489;51.404;5.474;2023-05-10T04:26:51;61.15;;;35.13;;
45784;SDS011;31489;51.404;5.474;2023-05-10T04:29:17;58.45;;;34.47;;
45784;SDS011;31489;51.404;5.474;2023-05-10T04:31:42;56.75;;;34.30;;
45784;SDS011;31489;51.404;5.474;2023-05-10T04:34:08;64.28;;;36.47;;
45784;SDS011;31489;51.404;5.474;2023-05-10T04:36:33;57.38;;;36.17;;
45784;SDS011;31489;51.404;5.474;2023-05-10T04:39:01;59.00;;;35.70;;
45784;SDS011;31489;51.404;5.474;2023-05-10T04:41:28;61.95;;;37.00;;
45784;SDS011;31489;51.404;5.474;2023-05-10T04:43:53;61.50;;;36.47;;
45784;SDS011;31489;51.404;5.474;2023-05-10T04:46:19;59.58;;;37.13;;
45784;SDS011;31489;51.404;5.474;2023-05-10T04:48:45;52.22;;;34.38;;
45784;SDS011;31489;51.404;5.474;2023-05-10T04:51:10;56.33;;;35.13;;
45784;SDS011;31489;51.404;5.474;2023-05-10T04:53:36;51.20;;;35.58;;
45784;SDS011;31489;51.404;5.474;2023-05-10T04:56:02;54.25;;;34.30;;
45784;SDS011;31489;51.404;5.474;2023-05-10T04:58:27;50.63;;;31.85;;
45784;SDS011;31489;51.404;5.474;2023-05-10T05:00:53;59.13;;;35.75;;
45784;SDS011;31489;51.404;5.474;2023-05-10T05:03:18;55.88;;;34.78;;
45784;SDS011;31489;51.404;5.474;2023-05-10T05:05:44;48.05;;;33.60;;
45784;SDS011;31489;51.404;5.474;2023-05-10T05:08:09;44.47;;;30.50;;
45784;SDS011;31489;51.404;5.474;2023-05-10T05:10:35;46.97;;;31.77;;
45784;SDS011;31489;51.404;5.474;2023-05-10T05:13:01;46.08;;;31.55;;
45784;SDS011;31489;51.404;5.474;2023-05-10T05:15:26;47.90;;;31.42;;
45784;SDS011;31489;51.404;5.474;2023-05-10T05:17:52;43.65;;;29.88;;
45784;SDS011;31489;51.404;5.474;2023-05-10T05:20:18;44.47;;;28.67;;
45784;SDS011;31489;51.404;5.474;2023-05-10T05:22:44;41.88;;;27.67;;
45784;SDS011;31489;51.404;5.474;2023-05-10T05:25:09;44.05;;;27.08;;
45784;SDS011;31489;51.404;5.474;2023-05-10T05:27:36;38.70;;;26.80;;
45784;SDS011;31489;51.404;5.474;2023-05-10T05:30:02;42.35;;;27.00;;
45784;SDS011;31489;51.404;5.474;2023-05-10T05:32:29;37.17;;;26.02;;
45784;SDS011;31489;51.404;5.474;2023-05-10T05:34:55;36.40;;;25.30;;
45784;SDS011;31489;51.404;5.474;2023-05-10T05:37:21;35.13;;;24.02;;
45784;SDS011;31489;51.404;5.474;2023-05-10T05:39:47;30.13;;;22.17;;
45784;SDS011;31489;51.404;5.474;2023-05-10T05:42:13;32.53;;;20.80;;
45784;SDS011;31489;51.404;5.474;2023-05-10T05:44:41;32.20;;;22.17;;
45784;SDS011;31489;51.404;5.474;2023-05-10T05:47:07;31.35;;;22.42;;
45784;SDS011;31489;51.404;5.474;2023-05-10T05:49:32;30.42;;;22.27;;
45784;SDS011;31489;51.404;5.474;2023-05-10T05:51:58;30.10;;;21.25;;
45784;SDS011;31489;51.404;5.474;2023-05-10T05:54:25;31.98;;;21.83;;
45784;SDS011;31489;51.404;5.474;2023-05-10T05:56:53;33.10;;;21.05;;
45784;SDS011;31489;51.404;5.474;2023-05-10T05:59:20;28.45;;;20.95;;
45784;SDS011;31489;51.404;5.474;2023-05-10T06:01:46;26.10;;;20.20;;
45784;SDS011;31489;51.404;5.474;2023-05-10T06:04:11;28.48;;;20.77;;
45784;SDS011;31489;51.404;5.474;2023-05-10T06:06:37;27.92;;;19.52;;
45784;SDS011;31489;51.404;5.474;2023-05-10T06:09:03;26.42;;;19.80;;
45784;SDS011;31489;51.404;5.474;2023-05-10T06:11:28;27.20;;;19.48;;
45784;SDS011;31489;51.404;5.474;2023-05-10T06:13:55;24.27;;;19.38;;
45784;SDS011;31489;51.404;5.474;2023-05-10T06:16:21;29.08;;;20.48;;
45784;SDS011;31489;51.404;5.474;2023-05-10T06:18:47;24.42;;;19.13;;
45784;SDS011;31489;51.404;5.474;2023-05-10T06:21:12;24.20;;;19.27;;
45784;SDS011;31489;51.404;5.474;2023-05-10T06:23:38;27.60;;;19.83;;
45784;SDS011;31489;51.404;5.474;2023-05-10T06:26:03;27.45;;;21.27;;
45784;SDS011;31489;51.404;5.474;2023-05-10T06:28:29;26.95;;;20.83;;
45784;SDS011;31489;51.404;5.474;2023-05-10T06:30:57;28.08;;;19.90;;
45784;SDS011;31489;51.404;5.474;2023-05-10T06:33:22;26.15;;;19.15;;
45784;SDS011;31489;51.404;5.474;2023-05-10T06:35:48;26.27;;;20.13;;
45784;SDS011;31489;51.404;5.474;2023-05-10T06:38:13;23.67;;;19.23;;
45784;SDS011;31489;51.404;5.474;2023-05-10T06:40:42;26.15;;;19.92;;
45784;SDS011;31489;51.404;5.474;2023-05-10T06:43:08;26.08;;;18.83;;
45784;SDS011;31489;51.404;5.474;2023-05-10T06:45:35;26.80;;;19.10;;
45784;SDS011;31489;51.404;5.474;2023-05-10T06:48:01;27.95;;;19.77;;
45784;SDS011;31489;51.404;5.474;2023-05-10T06:50:26;25.67;;;20.70;;
45784;SDS011;31489;51.404;5.474;2023-05-10T06:52:52;23.05;;;18.85;;
45784;SDS011;31489;51.404;5.474;2023-05-10T06:55:17;24.88;;;19.92;;
45784;SDS011;31489;51.404;5.474;2023-05-10T06:57:43;28.80;;;20.77;;
45784;SDS011;31489;51.404;5.474;2023-05-10T07:00:09;25.30;;;19.75;;
45784;SDS011;31489;51.404;5.474;2023-05-10T07:02:35;25.08;;;18.60;;
45784;SDS011;31489;51.404;5.474;2023-05-10T07:05:00;27.98;;;20.48;;
45784;SDS011;31489;51.404;5.474;2023-05-10T07:07:27;23.92;;;19.25;;
45784;SDS011;31489;51.404;5.474;2023-05-10T07:09:52;23.27;;;19.92;;
45784;SDS011;31489;51.404;5.474;2023-05-10T07:12:18;21.45;;;18.10;;
45784;SDS011;31489;51.404;5.474;2023-05-10T07:14:44;28.52;;;19.67;;
45784;SDS011;31489;51.404;5.474;2023-05-10T07:17:10;22.23;;;17.50;;
45784;SDS011;31489;51.404;5.474;2023-05-10T07:19:36;25.48;;;19.02;;
45784;SDS011;31489;51.404;5.474;2023-05-10T07:22:01;25.67;;;18.52;;
45784;SDS011;31489;51.404;5.474;2023-05-10T07:24:27;24.77;;;17.83;;
45784;SDS011;31489;51.404;5.474;2023-05-10T07:26:52;21.05;;;17.52;;
45784;SDS011;31489;51.404;5.474;2023-05-10T07:29:18;24.65;;;16.40;;
45784;SDS011;31489;51.404;5.474;2023-05-10T07:31:44;21.23;;;15.65;;
45784;SDS011;31489;51.404;5.474;2023-05-10T07:34:09;20.77;;;15.07;;
45784;SDS011;31489;51.404;5.474;2023-05-10T07:36:35;21.27;;;15.55;;
45784;SDS011;31489;51.404;5.474;2023-05-10T07:39:00;18.55;;;14.48;;
45784;SDS011;31489;51.404;5.474;2023-05-10T07:41:26;15.20;;;12.38;;
45784;SDS011;31489;51.404;5.474;2023-05-10T07:43:52;14.60;;;11.52;;
45784;SDS011;31489;51.404;5.474;2023-05-10T07:46:18;17.02;;;11.48;;
45784;SDS011;31489;51.404;5.474;2023-05-10T07:48:44;16.13;;;10.65;;
45784;SDS011;31489;51.404;5.474;2023-05-10T07:51:13;14.63;;;11.65;;
45784;SDS011;31489;51.404;5.474;2023-05-10T07:53:38;16.95;;;10.73;;
45784;SDS011;31489;51.404;5.474;2023-05-10T07:56:19;13.68;;;9.65;;
45784;SDS011;31489;51.404;5.474;2023-05-10T07:58:45;12.20;;;9.07;;
45784;SDS011;31489;51.404;5.474;2023-05-10T08:01:11;12.00;;;8.65;;
45784;SDS011;31489;51.404;5.474;2023-05-10T08:03:36;11.23;;;8.45;;
45784;SDS011;31489;51.404;5.474;2023-05-10T08:06:02;12.23;;;8.98;;
45784;SDS011;31489;51.404;5.474;2023-05-10T08:08:28;12.20;;;8.35;;
45784;SDS011;31489;51.404;5.474;2023-05-10T08:10:53;13.38;;;8.27;;
45784;SDS011;31489;51.404;5.474;2023-05-10T08:13:19;11.07;;;7.70;;
45784;SDS011;31489;51.404;5.474;2023-05-10T08:15:45;11.52;;;7.57;;
45784;SDS011;31489;51.404;5.474;2023-05-10T08:18:11;13.13;;;7.28;;
45784;SDS011;31489;51.404;5.474;2023-05-10T08:20:37;7.63;;;6.82;;
45784;SDS011;31489;51.404;5.474;2023-05-10T08:23:02;12.73;;;6.80;;
45784;SDS011;31489;51.404;5.474;2023-05-10T08:25:28;9.10;;;6.88;;
45784;SDS011;31489;51.404;5.474;2023-05-10T08:27:53;10.65;;;6.93;;
45784;SDS011;31489;51.404;5.474;2023-05-10T08:30:21;9.20;;;6.78;;
45784;SDS011;31489;51.404;5.474;2023-05-10T08:32:47;9.23;;;6.68;;
45784;SDS011;31489;51.404;5.474;2023-05-10T08:35:13;9.02;;;6.20;;
45784;SDS011;31489;51.404;5.474;2023-05-10T08:37:38;8.27;;;6.68;;
45784;SDS011;31489;51.404;5.474;2023-05-10T08:40:04;12.85;;;7.32;;
45784;SDS011;31489;51.404;5.474;2023-05-10T08:42:30;10.20;;;6.95;;
45784;SDS011;31489;51.404;5.474;2023-05-10T08:44:59;9.75;;;6.70;;
45784;SDS011;31489;51.404;5.474;2023-05-10T08:47:27;8.18;;;6.60;;
45784;SDS011;31489;51.404;5.474;2023-05-10T08:49:54;13.00;;;6.50;;
45784;SDS011;31489;51.404;5.474;2023-05-10T08:52:20;9.75;;;6.55;;
45784;SDS011;31489;51.404;5.474;2023-05-10T08:54:47;8.57;;;6.40;;
45784;SDS011;31489;51.404;5.474;2023-05-10T08:57:12;11.20;;;6.68;;
45784;SDS011;31489;51.404;5.474;2023-05-10T08:59:38;8.07;;;6.40;;
45784;SDS011;31489;51.404;5.474;2023-05-10T09:02:04;10.48;;;6.40;;
45784;SDS011;31489;51.404;5.474;2023-05-10T09:04:31;8.45;;;6.35;;
45784;SDS011;31489;51.404;5.474;2023-05-10T09:06:56;8.52;;;6.18;;
45784;SDS011;31489;51.404;5.474;2023-05-10T09:09:22;8.80;;;6.60;;
45784;SDS011;31489;51.404;5.474;2023-05-10T09:11:50;8.60;;;6.13;;
45784;SDS011;31489;51.404;5.474;2023-05-10T09:14:16;10.10;;;6.47;;
45784;SDS011;31489;51.404;5.474;2023-05-10T09:16:43;8.52;;;6.90;;
45784;SDS011;31489;51.404;5.474;2023-05-10T09:19:09;8.77;;;6.65;;
45784;SDS011;31489;51.404;5.474;2023-05-10T09:21:35;9.88;;;7.28;;
45784;SDS011;31489;51.404;5.474;2023-05-10T09:24:03;9.05;;;6.78;;
45784;SDS011;31489;51.404;5.474;2023-05-10T09:26:33;9.48;;;6.75;;
45784;SDS011;31489;51.404;5.474;2023-05-10T09:29:00;12.43;;;6.60;;
45784;SDS011;31489;51.404;5.474;2023-05-10T09:31:43;10.95;;;6.72;;
45784;SDS011;31489;51.404;5.474;2023-05-10T09:34:11;10.00;;;6.75;;
45784;SDS011;31489;51.404;5.474;2023-05-10T09:36:53;10.15;;;7.05;;
45784;SDS011;31489;51.404;5.474;2023-05-10T09:39:21;10.68;;;7.75;;
45784;SDS011;31489;51.404;5.474;2023-05-10T09:42:05;11.95;;;7.65;;
45784;SDS011;31489;51.404;5.474;2023-05-10T09:44:33;12.25;;;8.40;;
45784;SDS011;31489;51.404;5.474;2023-05-10T09:46:59;9.43;;;7.30;;
45784;SDS011;31489;51.404;5.474;2023-05-10T09:49:26;10.43;;;7.00;;
45784;SDS011;31489;51.404;5.474;2023-05-10T09:54:30;10.73;;;7.05;;
45784;SDS011;31489;51.404;5.474;2023-05-10T09:56:56;7.57;;;6.78;;
45784;SDS011;31489;51.404;5.474;2023-05-10T09:59:22;9.38;;;7.22;;
45784;SDS011;31489;51.404;5.474;2023-05-10T10:01:59;9.27;;;6.47;;
45784;SDS011;31489;51.404;5.474;2023-05-10T10:04:25;12.80;;;8.48;;
45784;SDS011;31489;51.404;5.474;2023-05-10T10:06:58;8.93;;;6.65;;
45784;SDS011;31489;51.404;5.474;2023-05-10T10:09:25;6.88;;;5.95;;
45784;SDS011;31489;51.404;5.474;2023-05-10T10:11:52;6.35;;;5.57;;
45784;SDS011;31489;51.404;5.474;2023-05-10T10:14:18;8.68;;;5.43;;
45784;SDS011;31489;51.404;5.474;2023-05-10T10:16:45;5.20;;;4.65;;
45784;SDS011;31489;51.404;5.474;2023-05-10T10:19:11;6.82;;;4.63;;
45784;SDS011;31489;51.404;5.474;2023-05-10T10:21:37;6.55;;;4.43;;
45784;SDS011;31489;51.404;5.474;2023-05-10T10:24:03;5.95;;;3.95;;
45784;SDS011;31489;51.404;5.474;2023-05-10T10:26:30;5.10;;;4.57;;
45784;SDS011;31489;51.404;5.474;2023-05-10T10:32:12;5.93;;;4.53;;
45784;SDS011;31489;51.404;5.474;2023-05-10T10:34:46;5.53;;;4.13;;
45784;SDS011;31489;51.404;5.474;2023-05-10T10:37:12;7.85;;;5.35;;
45784;SDS011;31489;51.404;5.474;2023-05-10T10:39:38;7.07;;;5.70;;
45784;SDS011;31489;51.404;5.474;2023-05-10T10:42:04;8.15;;;6.40;;
45784;SDS011;31489;51.404;5.474;2023-05-10T10:47:06;9.35;;;8.45;;
45784;SDS011;31489;51.404;5.474;2023-05-10T10:52:15;10.55;;;9.45;;
45784;SDS011;31489;51.404;5.474;2023-05-10T11:08:00;12.95;;;10.90;;
45784;SDS011;31489;51.404;5.474;2023-05-10T11:10:32;12.30;;;10.82;;
45784;SDS011;31489;51.404;5.474;2023-05-10T11:13:05;12.30;;;10.43;;
45784;SDS011;31489;51.404;5.474;2023-05-10T11:15:35;12.93;;;10.93;;
45784;SDS011;31489;51.404;5.474;2023-05-10T11:18:18;11.32;;;10.15;;
45784;SDS011;31489;51.404;5.474;2023-05-10T11:20:49;11.50;;;9.48;;
45784;SDS011;31489;51.404;5.474;2023-05-10T11:23:23;10.75;;;9.65;;
45784;SDS011;31489;51.404;5.474;2023-05-10T11:25:55;12.50;;;9.95;;
45784;SDS011;31489;51.404;5.474;2023-05-10T11:28:20;13.18;;;11.25;;
45784;SDS011;31489;51.404;5.474;2023-05-10T11:30:46;14.30;;;11.32;;
45784;SDS011;31489;51.404;5.474;2023-05-10T11:33:16;12.73;;;10.95;;
45784;SDS011;31489;51.404;5.474;2023-05-10T11:35:42;14.90;;;12.65;;
45784;SDS011;31489;51.404;5.474;2023-05-10T11:38:09;16.55;;;13.10;;
45784;SDS011;31489;51.404;5.474;2023-05-10T11:40:36;14.65;;;12.57;;
45784;SDS011;31489;51.404;5.474;2023-05-10T11:43:02;16.05;;;12.88;;
45784;SDS011;31489;51.404;5.474;2023-05-10T11:45:29;15.82;;;12.57;;
45784;SDS011;31489;51.404;5.474;2023-05-10T11:47:57;14.10;;;12.60;;
45784;SDS011;31489;51.404;5.474;2023-05-10T11:50:23;14.07;;;11.57;;
45784;SDS011;31489;51.404;5.474;2023-05-10T11:52:54;15.60;;;12.40;;
45784;SDS011;31489;51.404;5.474;2023-05-10T11:55:20;13.25;;;11.82;;
45784;SDS011;31489;51.404;5.474;2023-05-10T11:57:47;15.90;;;12.32;;
45784;SDS011;31489;51.404;5.474;2023-05-10T12:00:16;15.05;;;12.00;;
45784;SDS011;31489;51.404;5.474;2023-05-10T12:02:41;15.77;;;12.70;;
45784;SDS011;31489;51.404;5.474;2023-05-10T12:05:08;15.45;;;12.55;;
45784;SDS011;31489;51.404;5.474;2023-05-10T12:07:34;16.02;;;11.63;;
45784;SDS011;31489;51.404;5.474;2023-05-10T12:10:07;13.68;;;11.73;;
45784;SDS011;31489;51.404;5.474;2023-05-10T12:12:45;15.82;;;11.85;;
45784;SDS011;31489;51.404;5.474;2023-05-10T12:15:16;16.27;;;11.90;;
45784;SDS011;31489;51.404;5.474;2023-05-10T12:17:44;13.70;;;11.07;;
45784;SDS011;31489;51.404;5.474;2023-05-10T12:20:23;15.85;;;11.20;;
45784;SDS011;31489;51.404;5.474;2023-05-10T12:22:56;15.63;;;11.70;;
45784;SDS011;31489;51.404;5.474;2023-05-10T12:25:24;15.27;;;11.43;;
45784;SDS011;31489;51.404;5.474;2023-05-10T12:27:55;14.65;;;10.68;;
45784;SDS011;31489;51.404;5.474;2023-05-10T12:30:26;16.27;;;9.85;;
45784;SDS011;31489;51.404;5.474;2023-05-10T12:32:52;13.82;;;10.90;;
45784;SDS011;31489;51.404;5.474;2023-05-10T12:35:19;17.83;;;11.40;;
45784;SDS011;31489;51.404;5.474;2023-05-10T12:37:49;14.48;;;11.32;;
45784;SDS011;31489;51.404;5.474;2023-05-10T12:40:16;16.70;;;11.10;;
45784;SDS011;31489;51.404;5.474;2023-05-10T12:42:47;13.57;;;11.15;;
45784;SDS011;31489;51.404;5.474;2023-05-10T12:45:13;13.40;;;11.10;;
45784;SDS011;31489;51.404;5.474;2023-05-10T12:47:39;11.68;;;9.32;;
45784;SDS011;31489;51.404;5.474;2023-05-10T12:50:05;13.52;;;9.70;;
45784;SDS011;31489;51.404;5.474;2023-05-10T12:52:31;11.35;;;9.85;;
45784;SDS011;31489;51.404;5.474;2023-05-10T12:54:57;14.75;;;10.18;;
45784;SDS011;31489;51.404;5.474;2023-05-10T12:57:24;11.80;;;9.43;;
45784;SDS011;31489;51.404;5.474;2023-05-10T12:59:50;9.70;;;8.00;;
45784;SDS011;31489;51.404;5.474;2023-05-10T13:02:15;7.43;;;5.50;;
45784;SDS011;31489;51.404;5.474;2023-05-10T13:04:43;5.28;;;4.30;;
45784;SDS011;31489;51.404;5.474;2023-05-10T13:07:09;6.75;;;3.88;;
45784;SDS011;31489;51.404;5.474;2023-05-10T13:09:35;4.47;;;3.00;;
45784;SDS011;31489;51.404;5.474;2023-05-10T13:12:01;4.03;;;3.50;;
45784;SDS011;31489;51.404;5.474;2023-05-10T13:14:27;4.85;;;4.35;;
45784;SDS011;31489;51.404;5.474;2023-05-10T13:16:53;8.00;;;5.20;;
45784;SDS011;31489;51.404;5.474;2023-05-10T13:19:19;7.70;;;5.47;;
45784;SDS011;31489;51.404;5.474;2023-05-10T13:21:45;10.35;;;5.70;;
45784;SDS011;31489;51.404;5.474;2023-05-10T13:24:11;6.32;;;5.72;;
45784;SDS011;31489;51.404;5.474;2023-05-10T13:26:40;7.65;;;6.75;;
45784;SDS011;31489;51.404;5.474;2023-05-10T13:29:06;9.15;;;6.38;;
45784;SDS011;31489;51.404;5.474;2023-05-10T13:31:32;6.50;;;5.43;;
45784;SDS011;31489;51.404;5.474;2023-05-10T13:33:59;5.95;;;5.35;;
45784;SDS011;31489;51.404;5.474;2023-05-10T13:36:27;6.47;;;5.68;;
45784;SDS011;31489;51.404;5.474;2023-05-10T13:38:53;7.63;;;6.18;;
45784;SDS011;31489;51.404;5.474;2023-05-10T13:41:19;9.52;;;7.03;;
45784;SDS011;31489;51.404;5.474;2023-05-10T13:43:44;12.07;;;8.00;;
45784;SDS011;31489;51.404;5.474;2023-05-10T13:46:13;10.40;;;8.43;;
45784;SDS011;31489;51.404;5.474;2023-05-10T13:48:39;11.38;;;9.27;;
45784;SDS011;31489;51.404;5.474;2023-05-10T13:51:07;13.02;;;10.88;;
45784;SDS011;31489;51.404;5.474;2023-05-10T13:53:33;11.52;;;9.98;;
45784;SDS011;31489;51.404;5.474;2023-05-10T13:55:58;10.95;;;8.73;;
45784;SDS011;31489;51.404;5.474;2023-05-10T13:58:24;9.38;;;7.93;;
45784;SDS011;31489;51.404;5.474;2023-05-10T14:00:53;7.65;;;6.88;;
45784;SDS011;31489;51.404;5.474;2023-05-10T14:03:18;7.47;;;6.63;;
45784;SDS011;31489;51.404;5.474;2023-05-10T14:05:44;6.60;;;5.30;;
45784;SDS011;31489;51.404;5.474;2023-05-10T14:08:10;7.18;;;5.35;;
45784;SDS011;31489;51.404;5.474;2023-05-10T14:10:38;9.05;;;5.50;;
45784;SDS011;31489;51.404;5.474;2023-05-10T14:13:04;5.30;;;4.05;;
45784;SDS011;31489;51.404;5.474;2023-05-10T14:15:30;5.15;;;3.80;;
45784;SDS011;31489;51.404;5.474;2023-05-10T14:17:55;4.75;;;3.63;;
45784;SDS011;31489;51.404;5.474;2023-05-10T14:20:24;5.80;;;4.10;;
45784;SDS011;31489;51.404;5.474;2023-05-10T14:22:49;5.18;;;3.72;;
45784;SDS011;31489;51.404;5.474;2023-05-10T14:25:15;5.80;;;4.00;;
45784;SDS011;31489;51.404;5.474;2023-05-10T14:27:41;5.72;;;4.50;;
45784;SDS011;31489;51.404;5.474;2023-05-10T14:30:07;5.88;;;4.30;;
45784;SDS011;31489;51.404;5.474;2023-05-10T14:32:33;6.28;;;4.57;;
45784;SDS011;31489;51.404;5.474;2023-05-10T14:34:58;5.05;;;3.95;;
45784;SDS011;31489;51.404;5.474;2023-05-10T14:37:27;4.40;;;3.75;;
45784;SDS011;31489;51.404;5.474;2023-05-10T14:39:52;4.82;;;3.50;;
45784;SDS011;31489;51.404;5.474;2023-05-10T14:42:20;2.88;;;2.58;;
45784;SDS011;31489;51.404;5.474;2023-05-10T14:44:46;4.28;;;2.90;;
45784;SDS011;31489;51.404;5.474;2023-05-10T14:47:11;3.38;;;2.83;;
45784;SDS011;31489;51.404;5.474;2023-05-10T14:49:37;4.93;;;3.00;;
45784;SDS011;31489;51.404;5.474;2023-05-10T14:52:06;4.88;;;3.40;;
45784;SDS011;31489;51.404;5.474;2023-05-10T14:54:43;6.50;;;3.85;;
45784;SDS011;31489;51.404;5.474;2023-05-10T14:57:08;5.53;;;3.90;;
45784;SDS011;31489;51.404;5.474;2023-05-10T14:59:34;4.85;;;4.10;;
45784;SDS011;31489;51.404;5.474;2023-05-10T15:02:03;5.70;;;4.28;;
45784;SDS011;31489;51.404;5.474;2023-05-10T15:04:29;6.25;;;4.38;;
45784;SDS011;31489;51.404;5.474;2023-05-10T15:06:55;9.07;;;4.25;;
45784;SDS011;31489;51.404;5.474;2023-05-10T15:09:24;5.82;;;4.18;;
45784;SDS011;31489;51.404;5.474;2023-05-10T15:11:50;6.07;;;4.07;;
45784;SDS011;31489;51.404;5.474;2023-05-10T15:14:16;6.82;;;4.60;;
45784;SDS011;31489;51.404;5.474;2023-05-10T15:16:41;5.65;;;4.15;;
45784;SDS011;31489;51.404;5.474;2023-05-10T15:19:07;5.25;;;4.13;;